createdAt,value
2022-12-27T00:00:08.878Z,10.30
2022-12-27T00:02:38.487Z,10.30
2022-12-27T00:05:06.765Z,10.30
2022-12-27T00:07:33.992Z,10.30
2022-12-27T00:10:02.195Z,10.20
2022-12-27T00:12:29.558Z,10.20
2022-12-27T00:14:58.130Z,10.20
2022-12-27T00:17:25.664Z,10.20
2022-12-27T00:19:52.922Z,10.20
2022-12-27T00:22:20.464Z,10.20
2022-12-27T00:24:48.527Z,10.20
2022-12-27T00:27:16.942Z,10.20
2022-12-27T00:29:44.307Z,10.10
2022-12-27T00:32:13.212Z,10.10
2022-12-27T00:34:40.453Z,10.10
2022-12-27T00:37:09.223Z,10.10
2022-12-27T00:39:36.763Z,10.00
2022-12-27T00:42:04.196Z,10.00
2022-12-27T00:44:31.544Z,10.00
2022-12-27T00:46:58.748Z,10.00
2022-12-27T00:49:26.108Z,9.90
2022-12-27T00:51:53.509Z,9.90
2022-12-27T00:54:20.933Z,9.90
2022-12-27T00:56:48.382Z,9.90
2022-12-27T00:59:15.560Z,9.80
2022-12-27T01:01:43.101Z,9.80
2022-12-27T01:04:12.842Z,9.80
2022-12-27T01:06:40.523Z,9.80
2022-12-27T01:09:07.827Z,9.80
2022-12-27T01:11:35.208Z,9.80
2022-12-27T01:14:05.047Z,9.80
2022-12-27T01:16:32.935Z,9.80
2022-12-27T01:19:00.944Z,9.80
2022-12-27T01:21:31.666Z,9.90
2022-12-27T01:23:59.566Z,9.90
2022-12-27T01:26:29.599Z,9.90
2022-12-27T01:28:58.567Z,10.00
2022-12-27T01:31:29.286Z,10.10
2022-12-27T01:33:58.747Z,10.10
2022-12-27T01:36:28.197Z,10.20
2022-12-27T01:38:55.676Z,10.40
2022-12-27T01:41:44.608Z,10.50
2022-12-27T01:44:42.353Z,10.60
2022-12-27T01:47:17.582Z,10.70
2022-12-27T01:50:18.086Z,10.80
2022-12-27T01:53:04.453Z,10.90
2022-12-27T01:55:48.889Z,11.10
2022-12-27T01:58:58.430Z,11.20
2022-12-27T02:01:33.572Z,11.20
2022-12-27T02:04:09.325Z,11.20
2022-12-27T02:06:38.297Z,11.30
2022-12-27T02:09:27.057Z,11.30
2022-12-27T02:11:57.043Z,11.30
2022-12-27T02:14:40.007Z,11.30
2022-12-27T02:17:11.296Z,11.30
2022-12-27T02:19:41.531Z,11.20
2022-12-27T02:22:53.103Z,11.20
2022-12-27T02:26:01.677Z,11.20
2022-12-27T02:29:08.107Z,11.20
2022-12-27T02:31:50.308Z,11.20
2022-12-27T02:34:24.380Z,11.10
2022-12-27T02:36:58.398Z,11.10
2022-12-27T02:39:27.301Z,11.10
2022-12-27T02:42:13.461Z,11.10
2022-12-27T02:45:07.025Z,11.00
2022-12-27T02:47:53.600Z,11.00
2022-12-27T02:50:59.469Z,10.90
2022-12-27T02:53:54.613Z,10.90
2022-12-27T02:57:10.498Z,10.90
2022-12-27T03:00:15.190Z,10.90
2022-12-27T03:03:16.588Z,10.80
2022-12-27T03:06:27.860Z,10.90
2022-12-27T03:09:41.728Z,10.80
2022-12-27T03:12:46.696Z,10.70
2022-12-27T03:15:55.230Z,10.70
2022-12-27T03:18:28.331Z,10.60
2022-12-27T03:21:17.839Z,10.60
2022-12-27T03:24:06.538Z,10.50
2022-12-27T03:26:37.211Z,10.50
2022-12-27T03:29:25.520Z,10.50
2022-12-27T03:32:17.225Z,10.50
2022-12-27T03:34:51.581Z,10.50
2022-12-27T03:37:43.835Z,10.50
2022-12-27T03:40:19.900Z,10.40
2022-12-27T03:43:13.964Z,10.40
2022-12-27T03:46:07.025Z,10.30
2022-12-27T03:48:43.273Z,10.20
2022-12-27T03:51:11.658Z,10.20
2022-12-27T03:53:44.463Z,10.20
2022-12-27T03:56:12.217Z,10.10
2022-12-27T03:58:39.693Z,10.10
2022-12-27T04:01:07.381Z,10.00
2022-12-27T04:03:34.773Z,10.00
2022-12-27T04:06:02.009Z,9.90
2022-12-27T04:08:47.947Z,9.90
2022-12-27T04:11:33.697Z,9.90
2022-12-27T04:14:19.409Z,9.90
2022-12-27T04:17:05.037Z,9.90
2022-12-27T04:19:50.835Z,9.90
2022-12-27T04:22:36.673Z,9.90
2022-12-27T04:25:29.366Z,9.90
2022-12-27T04:28:15.369Z,9.90
2022-12-27T04:31:01.792Z,9.90
2022-12-27T04:33:47.854Z,9.90
2022-12-27T04:36:15.108Z,9.90
2022-12-27T04:38:42.514Z,9.80
2022-12-27T04:41:28.258Z,9.80
2022-12-27T04:44:14.240Z,9.80
2022-12-27T04:46:59.825Z,9.80
2022-12-27T04:49:46.044Z,9.80
2022-12-27T04:52:38.813Z,9.80
2022-12-27T04:55:21.630Z,9.80
2022-12-27T04:57:49.129Z,9.80
2022-12-27T05:00:36.029Z,9.80
2022-12-27T05:03:09.426Z,9.70
2022-12-27T05:05:39.107Z,9.70
2022-12-27T05:08:26.863Z,9.70
2022-12-27T05:11:12.527Z,9.70
2022-12-27T05:13:58.421Z,9.60
2022-12-27T05:16:31.056Z,9.60
2022-12-27T05:18:58.777Z,9.60
2022-12-27T05:21:26.529Z,9.60
2022-12-27T05:24:12.859Z,9.60
2022-12-27T05:26:40.068Z,9.60
2022-12-27T05:29:08.197Z,9.60
2022-12-27T05:31:35.510Z,9.60
2022-12-27T05:34:03.206Z,9.60
2022-12-27T05:36:30.411Z,9.50
2022-12-27T05:38:58.978Z,9.50
2022-12-27T05:41:26.511Z,9.50
2022-12-27T05:43:53.924Z,9.50
2022-12-27T05:46:22.372Z,9.50
2022-12-27T05:48:50.078Z,9.60
2022-12-27T05:51:19.884Z,9.70
2022-12-27T05:53:48.155Z,9.80
2022-12-27T05:56:19.733Z,9.80
2022-12-27T05:58:47.602Z,9.90
2022-12-27T06:01:17.172Z,9.90
2022-12-27T06:03:46.088Z,9.90
2022-12-27T06:06:14.336Z,9.90
2022-12-27T06:08:41.946Z,9.90
2022-12-27T06:11:12.107Z,9.90
2022-12-27T06:13:40.228Z,9.90
2022-12-27T06:16:10.439Z,9.90
2022-12-27T06:18:39.866Z,9.90
2022-12-27T06:21:13.061Z,9.90
2022-12-27T06:23:42.654Z,9.80
2022-12-27T06:26:14.180Z,9.80
2022-12-27T06:28:41.583Z,9.80
2022-12-27T06:31:11.116Z,9.80
2022-12-27T06:33:38.420Z,9.90
2022-12-27T06:36:11.933Z,9.90
2022-12-27T06:38:40.350Z,9.90
2022-12-27T06:41:09.826Z,9.90
2022-12-27T06:43:37.168Z,9.90
2022-12-27T06:46:10.174Z,9.90
2022-12-27T06:48:39.010Z,9.90
2022-12-27T06:51:09.068Z,9.90
2022-12-27T06:53:36.945Z,9.70
2022-12-27T06:56:10.649Z,9.60
2022-12-27T06:58:38.164Z,9.50
2022-12-27T07:01:19.435Z,9.40
2022-12-27T07:03:52.170Z,9.30
2022-12-27T07:06:20.640Z,9.20
2022-12-27T07:08:49.793Z,9.10
2022-12-27T07:11:17.856Z,9.00
2022-12-27T07:13:48.666Z,8.90
2022-12-27T07:16:19.996Z,8.90
2022-12-27T07:18:49.852Z,9.00
2022-12-27T07:21:22.131Z,8.90
2022-12-27T07:23:49.545Z,9.00
2022-12-27T07:26:27.938Z,9.00
2022-12-27T07:28:56.863Z,9.00
2022-12-27T07:31:26.768Z,9.00
2022-12-27T07:33:54.115Z,9.00
2022-12-27T07:36:28.600Z,8.90
2022-12-27T07:38:57.500Z,9.00
2022-12-27T07:41:25.023Z,9.00
2022-12-27T07:43:55.095Z,8.90
2022-12-27T07:46:25.182Z,8.90
2022-12-27T07:48:57.100Z,8.90
2022-12-27T07:51:28.603Z,8.90
2022-12-27T07:53:55.911Z,9.00
2022-12-27T07:56:28.542Z,9.00
2022-12-27T07:59:00.624Z,9.00
2022-12-27T08:01:53.172Z,9.00
2022-12-27T08:04:20.892Z,9.00
2022-12-27T08:06:48.365Z,9.00
2022-12-27T08:09:29.114Z,8.90
2022-12-27T08:11:57.307Z,9.00
2022-12-27T08:14:25.165Z,8.90
2022-12-27T08:16:52.652Z,8.90
2022-12-27T08:19:20.615Z,8.90
2022-12-27T08:21:47.907Z,8.80
2022-12-27T08:24:15.465Z,8.80
2022-12-27T08:26:45.533Z,8.70
2022-12-27T08:29:12.872Z,8.60
2022-12-27T08:31:40.766Z,8.50
2022-12-27T08:34:08.599Z,8.40
2022-12-27T08:36:54.638Z,8.40
2022-12-27T08:39:24.608Z,8.30
2022-12-27T08:41:56.431Z,8.30
2022-12-27T08:44:25.416Z,8.20
2022-12-27T08:46:53.654Z,8.20
2022-12-27T08:49:21.858Z,8.10
2022-12-27T08:51:50.660Z,8.00
2022-12-27T08:54:19.144Z,8.10
2022-12-27T08:56:47.446Z,8.00
2022-12-27T08:59:15.492Z,8.00
2022-12-27T09:01:45.894Z,8.10
2022-12-27T09:04:13.729Z,8.10
2022-12-27T09:06:42.532Z,8.10
2022-12-27T09:09:09.871Z,8.10
2022-12-27T09:11:37.334Z,8.00
2022-12-27T09:14:05.855Z,8.00
2022-12-27T09:16:37.156Z,8.00
2022-12-27T09:19:04.613Z,8.00
2022-12-27T09:21:34.151Z,8.10
2022-12-27T09:24:01.785Z,8.00
2022-12-27T09:26:30.794Z,8.00
2022-12-27T09:28:59.188Z,8.00
2022-12-27T09:31:27.837Z,8.00
2022-12-27T09:33:55.771Z,8.10
2022-12-27T09:36:28.633Z,8.10
2022-12-27T09:38:58.797Z,8.10
2022-12-27T09:44:38.443Z,8.10
2022-12-27T09:47:22.534Z,8.00
2022-12-27T09:49:53.693Z,8.20
2022-12-27T09:52:29.243Z,8.60
2022-12-27T09:55:01.074Z,8.90
2022-12-27T09:57:37.007Z,9.10
2022-12-27T10:00:12.996Z,9.20
2022-12-27T10:02:43.157Z,9.50
2022-12-27T10:05:26.297Z,9.80
2022-12-27T10:08:10.961Z,10.00
2022-12-27T10:10:57.048Z,10.40
2022-12-27T10:14:00.401Z,10.80
2022-12-27T10:16:45.098Z,11.10
2022-12-27T10:19:32.594Z,11.40
2022-12-27T10:22:24.436Z,11.50
2022-12-27T10:24:56.678Z,11.70
2022-12-27T10:27:28.046Z,11.90
2022-12-27T10:29:58.085Z,12.00
2022-12-27T10:32:26.848Z,11.80
2022-12-27T10:34:57.701Z,11.50
2022-12-27T10:37:25.077Z,11.30
2022-12-27T10:39:53.637Z,11.20
2022-12-27T10:42:42.874Z,11.10
2022-12-27T10:45:39.982Z,11.00
2022-12-27T10:48:21.233Z,10.70
2022-12-27T10:51:01.183Z,10.30
2022-12-27T10:53:56.599Z,10.00
2022-12-27T10:56:44.766Z,9.60
2022-12-27T10:59:17.143Z,9.40
2022-12-27T11:02:03.084Z,9.30
2022-12-27T11:04:31.770Z,9.20
2022-12-27T11:07:06.903Z,9.10
2022-12-27T11:09:50.802Z,9.10
2022-12-27T11:12:31.981Z,9.10
2022-12-27T11:14:59.516Z,8.90
2022-12-27T11:17:53.068Z,8.90
2022-12-27T11:20:40.794Z,8.80
2022-12-27T11:23:09.060Z,8.70
2022-12-27T11:25:47.101Z,8.80
2022-12-27T11:28:27.282Z,8.90
2022-12-27T11:31:02.421Z,8.90
2022-12-27T11:33:37.604Z,8.80
2022-12-27T11:36:06.341Z,8.80
2022-12-27T11:38:41.182Z,8.90
2022-12-27T11:41:17.351Z,8.90
2022-12-27T11:44:02.849Z,8.90
2022-12-27T11:46:46.675Z,9.00
2022-12-27T11:49:22.404Z,9.00
2022-12-27T11:52:01.918Z,9.00
2022-12-27T11:54:48.482Z,9.10
2022-12-27T11:57:53.527Z,9.10
2022-12-27T12:00:27.320Z,9.20
2022-12-27T12:03:02.912Z,9.10
2022-12-27T12:05:39.005Z,9.20
2022-12-27T12:08:36.061Z,9.10
2022-12-27T12:11:28.119Z,9.20
2022-12-27T12:14:10.029Z,9.20
2022-12-27T12:17:01.310Z,9.20
2022-12-27T12:20:06.374Z,9.10
2022-12-27T12:23:06.138Z,9.10
2022-12-27T12:25:48.574Z,9.10
2022-12-27T12:28:58.070Z,9.20
2022-12-27T12:31:43.893Z,9.30
2022-12-27T12:34:49.084Z,9.30
2022-12-27T12:37:26.455Z,9.40
2022-12-27T12:40:04.533Z,9.30
2022-12-27T12:43:01.289Z,9.30
2022-12-27T12:45:59.569Z,9.30
2022-12-27T12:48:49.730Z,9.30
2022-12-27T12:51:47.223Z,9.30
2022-12-27T12:54:35.626Z,9.30
2022-12-27T12:57:14.320Z,9.30
2022-12-27T12:59:49.441Z,9.30
2022-12-27T13:02:48.794Z,9.30
2022-12-27T13:05:42.350Z,9.30
2022-12-27T13:08:37.821Z,9.30
2022-12-27T13:11:28.184Z,9.30
2022-12-27T13:14:33.136Z,9.30
2022-12-27T13:17:28.844Z,9.30
2022-12-27T13:19:56.909Z,9.20
2022-12-27T13:22:55.782Z,9.20
2022-12-27T13:25:49.375Z,9.20
2022-12-27T13:28:45.687Z,9.20
2022-12-27T13:31:36.037Z,9.20
2022-12-27T13:34:20.351Z,9.30
2022-12-27T13:37:10.253Z,9.20
2022-12-27T13:40:11.574Z,9.20
2022-12-27T13:43:11.322Z,9.20
2022-12-27T13:46:17.663Z,9.20
2022-12-27T14:33:21.100Z,8.20
2022-12-27T14:36:14.031Z,8.10
2022-12-27T14:39:13.846Z,8.00
2022-12-27T14:42:19.210Z,8.00
2022-12-27T14:45:24.123Z,7.90
2022-12-27T14:48:26.472Z,7.80
2022-12-27T14:51:59.361Z,7.80
2022-12-27T14:54:55.701Z,7.70
2022-12-27T14:57:34.058Z,7.60
2022-12-27T15:00:24.250Z,7.60
2022-12-27T15:03:41.097Z,7.50
2022-12-27T15:06:39.423Z,7.50
2022-12-27T15:09:33.029Z,7.40
2022-12-27T15:12:39.577Z,7.40
2022-12-27T15:15:45.307Z,7.30
2022-12-27T15:18:46.712Z,7.30
2022-12-27T15:21:43.521Z,7.30
2022-12-27T15:24:37.011Z,7.30
2022-12-27T15:27:28.159Z,7.30
2022-12-27T15:30:36.644Z,7.30
2022-12-27T15:33:26.120Z,7.30
2022-12-27T15:36:09.034Z,7.30
2022-12-27T15:38:54.133Z,7.30
2022-12-27T15:41:48.920Z,7.30
2022-12-27T15:44:29.384Z,7.20
2022-12-27T15:47:09.447Z,7.10
2022-12-27T16:09:38.477Z,6.90
2022-12-27T16:15:51.106Z,7.00
2022-12-27T16:18:44.216Z,7.00
2022-12-27T16:21:49.043Z,7.00
2022-12-27T16:35:48.519Z,7.10
2022-12-27T16:38:30.280Z,7.10
2022-12-27T16:41:29.888Z,7.20
2022-12-27T16:44:00.262Z,7.30
2022-12-27T16:47:11.286Z,7.30
2022-12-27T16:50:04.285Z,7.40
2022-12-27T16:53:44.621Z,7.40
2022-12-27T16:56:39.670Z,7.40
2022-12-27T16:59:49.582Z,7.50
2022-12-27T17:02:37.304Z,7.50
2022-12-27T17:05:36.404Z,7.50
2022-12-27T17:08:23.880Z,7.50
2022-12-27T17:11:31.882Z,7.50
2022-12-27T17:14:37.757Z,7.60
2022-12-27T17:23:22.539Z,7.60
2022-12-27T17:26:39.949Z,7.60
2022-12-27T17:29:29.336Z,7.60
2022-12-27T17:32:27.390Z,7.60
2022-12-27T17:35:03.515Z,7.50
2022-12-27T17:44:39.881Z,7.20
2022-12-27T17:47:49.103Z,7.10
2022-12-27T17:50:29.095Z,7.00
2022-12-27T17:53:39.123Z,6.90
2022-12-27T17:57:05.447Z,6.90
2022-12-27T17:59:37.939Z,6.80
2022-12-27T18:02:23.659Z,6.70
2022-12-27T18:05:03.809Z,6.70
2022-12-27T18:07:33.376Z,6.60
2022-12-27T18:10:10.096Z,6.60
2022-12-27T18:15:50.368Z,6.60
2022-12-27T18:18:39.491Z,6.60
2022-12-27T18:21:10.162Z,6.70
2022-12-27T18:23:44.563Z,6.70
2022-12-27T18:26:15.641Z,6.70
2022-12-27T18:31:50.457Z,6.70
2022-12-27T18:34:51.657Z,6.70
2022-12-27T18:37:22.786Z,6.70
2022-12-27T18:40:20.729Z,6.60
2022-12-27T18:45:38.331Z,6.70
2022-12-27T18:48:15.349Z,6.70
2022-12-27T18:50:51.707Z,6.70
2022-12-27T18:53:49.896Z,6.70
2022-12-27T18:56:29.386Z,6.70
2022-12-27T18:59:01.117Z,6.60
2022-12-27T19:01:47.503Z,6.60
2022-12-27T19:04:34.831Z,6.60
2022-12-27T19:07:14.580Z,6.60
2022-12-27T19:09:58.100Z,6.60
2022-12-27T19:12:35.091Z,6.60
2022-12-27T19:15:08.822Z,6.60
2022-12-27T19:17:38.978Z,6.50
2022-12-27T19:20:09.015Z,6.50
2022-12-27T19:22:57.649Z,6.50
2022-12-27T19:25:47.207Z,6.50
2022-12-27T19:28:14.605Z,6.50
2022-12-27T19:30:47.229Z,6.50
2022-12-27T19:33:24.392Z,6.40
2022-12-27T19:36:01.866Z,6.40
2022-12-27T19:38:32.016Z,6.40
2022-12-27T19:41:04.158Z,6.30
2022-12-27T19:43:46.319Z,6.30
2022-12-27T19:46:25.879Z,6.30
2022-12-27T19:49:40.185Z,6.20
2022-12-27T19:51:50.434Z,6.10
2022-12-27T19:54:21.225Z,6.10
2022-12-27T19:56:50.058Z,6.10
2022-12-27T19:59:20.687Z,6.00
2022-12-27T20:01:49.561Z,6.00
2022-12-27T20:04:18.686Z,5.90
2022-12-27T20:06:49.358Z,5.90
2022-12-27T20:09:25.707Z,5.80
2022-12-27T20:11:56.308Z,5.80
2022-12-27T20:14:26.610Z,5.70
2022-12-27T20:16:56.609Z,5.70
2022-12-27T20:19:28.645Z,5.70
2022-12-27T20:22:02.412Z,5.70
2022-12-27T20:24:31.914Z,5.60
2022-12-27T20:26:59.826Z,5.60
2022-12-27T20:29:29.463Z,5.60
2022-12-27T20:31:59.842Z,5.50
2022-12-27T20:34:28.832Z,5.50
2022-12-27T20:37:00.643Z,5.50
2022-12-27T20:39:31.125Z,5.50
2022-12-27T20:42:01.752Z,5.50
2022-12-27T20:44:45.012Z,5.50
2022-12-27T20:47:28.514Z,5.40
2022-12-27T20:49:59.197Z,5.40
2022-12-27T20:52:32.645Z,5.40
2022-12-27T20:55:00.960Z,5.40
2022-12-27T20:57:31.385Z,5.40
2022-12-27T21:00:09.565Z,5.40
2022-12-27T21:02:40.264Z,5.40
2022-12-27T21:05:08.539Z,5.40
2022-12-27T21:07:36.716Z,5.40
2022-12-27T21:10:06.541Z,5.40
2022-12-27T21:12:36.017Z,5.30
2022-12-27T21:15:04.842Z,5.30
2022-12-27T21:17:35.805Z,5.30
2022-12-27T21:20:11.756Z,5.30
2022-12-27T21:22:41.621Z,5.30
2022-12-27T21:25:15.764Z,5.30
2022-12-27T21:27:48.686Z,5.30
2022-12-27T21:30:17.610Z,5.30
2022-12-27T21:33:09.878Z,5.30
2022-12-27T21:35:47.060Z,5.20
2022-12-27T21:41:10.597Z,5.20
2022-12-27T21:46:27.498Z,5.20
2022-12-27T21:49:09.083Z,5.10
2022-12-27T21:51:49.229Z,5.10
2022-12-27T21:57:04.109Z,5.00
2022-12-27T21:59:32.601Z,5.00
2022-12-27T22:02:00.377Z,4.90
2022-12-27T22:04:35.935Z,4.90
2022-12-27T22:07:06.167Z,4.90
2022-12-27T22:09:38.694Z,4.80
2022-12-27T22:12:06.823Z,4.80
2022-12-27T22:14:37.194Z,4.80
2022-12-27T22:17:06.958Z,4.80
2022-12-27T22:19:35.555Z,4.70
2022-12-27T22:22:11.680Z,4.70
2022-12-27T22:24:40.259Z,4.70
2022-12-27T22:27:09.063Z,4.60
2022-12-27T22:29:40.419Z,4.60
2022-12-27T22:38:14.031Z,4.50
2022-12-27T22:40:46.904Z,4.50
2022-12-27T22:43:28.499Z,4.50
2022-12-27T22:46:01.704Z,4.50
2022-12-27T22:48:32.028Z,4.40
2022-12-27T22:51:26.800Z,4.40
2022-12-27T22:54:05.852Z,4.30
2022-12-27T22:56:44.912Z,4.30
2022-12-27T22:59:15.168Z,4.30
2022-12-27T23:01:52.391Z,4.30
2022-12-27T23:04:22.951Z,4.20
2022-12-27T23:07:20.441Z,4.20
2022-12-27T23:09:50.250Z,4.20
2022-12-27T23:12:28.216Z,4.20
2022-12-27T23:14:58.506Z,4.20
2022-12-27T23:17:30.156Z,4.20
2022-12-27T23:20:00.735Z,4.10
2022-12-27T23:22:33.577Z,4.10
2022-12-27T23:25:02.336Z,4.10
2022-12-27T23:27:37.721Z,4.10
2022-12-27T23:30:06.422Z,4.10
2022-12-27T23:32:35.192Z,4.10
2022-12-27T23:35:03.168Z,4.10
2022-12-27T23:37:39.732Z,4.10
2022-12-27T23:40:12.849Z,4.10
2022-12-27T23:42:45.735Z,4.10
2022-12-27T23:45:17.951Z,4.10
2022-12-27T23:47:47.010Z,4.10
2022-12-27T23:50:20.765Z,4.10
2022-12-27T23:52:50.147Z,4.10
2022-12-27T23:55:19.466Z,4.10
2022-12-27T23:57:58.155Z,4.10
